Time;durP1;ratioP1;P1;durP2;ratioP2;P2;SDS_P1;SDS_P2;PMS_P1;PMS_P2;Temp;Humidity;BMP_temperature;BMP_pressure;BME280_temperature;BME280_humidity;BME280_pressure;Samples;Min_cycle;Max_cycle;Signal;HPM_P1;HPM_P2
2022/11/24 00:01:10;;;;;;;18.65;9.48;;;;;;;;;;5041785;28;20039;-65
2022/11/24 00:03:36;;;;;;;19.85;8.50;;;;;;;;;;5040948;28;21555;-66
2022/11/24 00:06:06;;;;;;;24.95;9.32;;;;;;;;;;5040716;28;20025;-64
2022/11/24 00:08:31;;;;;;;31.77;9.65;;;;;;;;;;5041953;28;20032;-64
2022/11/24 00:11:01;;;;;;;18.90;9.10;;;;;;;;;;5041867;28;20017;-66
2022/11/24 00:13:26;;;;;;;18.55;7.95;;;;;;;;;;5040981;28;20571;-65
2022/11/24 00:15:51;;;;;;;22.83;8.65;;;;;;;;;;5040661;28;20020;-65
2022/11/24 00:18:16;;;;;;;23.83;9.02;;;;;;;;;;5041957;28;20613;-65
2022/11/24 00:20:42;;;;;;;15.30;7.35;;;;;;;;;;5041902;28;20025;-65
2022/11/24 00:23:07;;;;;;;18.90;7.80;;;;;;;;;;5040942;28;20047;-67
2022/11/24 00:25:32;;;;;;;23.42;8.48;;;;;;;;;;5039519;28;20033;-65
2022/11/24 00:27:57;;;;;;;22.42;8.32;;;;;;;;;;5040496;28;20021;-66
2022/11/24 00:30:22;;;;;;;21.58;8.82;;;;;;;;;;5041217;28;20089;-65
2022/11/24 00:32:48;;;;;;;21.33;8.48;;;;;;;;;;5041406;28;20020;-66
2022/11/24 00:35:13;;;;;;;15.60;7.15;;;;;;;;;;5040989;28;20021;-64
2022/11/24 00:37:38;;;;;;;22.95;7.63;;;;;;;;;;5044647;28;20029;-65
2022/11/24 00:40:04;;;;;;;21.63;7.97;;;;;;;;;;5044371;28;20058;-64
2022/11/24 00:42:29;;;;;;;22.40;7.22;;;;;;;;;;5045071;28;20035;-65
2022/11/24 00:44:54;;;;;;;23.35;7.78;;;;;;;;;;5044466;28;20017;-65
2022/11/24 00:47:19;;;;;;;18.48;8.45;;;;;;;;;;5043558;28;20021;-64
2022/11/24 00:49:44;;;;;;;19.38;8.07;;;;;;;;;;5044836;28;20028;-65
2022/11/24 00:52:10;;;;;;;24.52;9.18;;;;;;;;;;5045551;28;20032;-65
2022/11/24 00:54:35;;;;;;;25.77;8.77;;;;;;;;;;5043712;28;20040;-66
2022/11/24 00:57:00;;;;;;;23.50;9.93;;;;;;;;;;5044851;28;20021;-65
2022/11/24 00:59:25;;;;;;;23.30;8.60;;;;;;;;;;5045753;28;20025;-66
2022/11/24 01:01:50;;;;;;;23.88;8.95;;;;;;;;;;5047560;28;20043;-65
2022/11/24 01:04:16;;;;;;;23.77;8.02;;;;;;;;;;5048025;28;20427;-66
2022/11/24 01:06:42;;;;;;;26.70;9.18;;;;;;;;;;5049429;28;20681;-64
2022/11/24 01:09:10;;;;;;;21.50;8.75;;;;;;;;;;5050734;28;20029;-66
2022/11/24 01:14:19;;;;;;;21.92;7.93;;;;;;;;;;5050945;28;20043;-67
2022/11/24 01:16:44;;;;;;;30.45;7.57;;;;;;;;;;5051723;28;20017;-66
2022/11/24 01:19:10;;;;;;;23.20;8.68;;;;;;;;;;5050009;28;20471;-65
2022/11/24 01:21:35;;;;;;;23.42;8.93;;;;;;;;;;5051027;28;20020;-64
2022/11/24 01:24:00;;;;;;;19.27;7.70;;;;;;;;;;5050815;28;20422;-65
2022/11/24 01:26:25;;;;;;;14.35;7.40;;;;;;;;;;5051021;28;20502;-66
2022/11/24 01:28:54;;;;;;;25.13;7.78;;;;;;;;;;5051256;28;20013;-64
2022/11/24 01:31:20;;;;;;;;;;;;;;;;;;5051844;28;20504;-66
2022/11/24 01:33:45;;;;;;;19.52;7.35;;;;;;;;;;5051279;28;20263;-67
2022/11/24 01:36:10;;;;;;;14.38;7.57;;;;;;;;;;5050956;28;20835;-65
2022/11/24 01:38:35;;;;;;;23.05;8.00;;;;;;;;;;5050904;28;20043;-67
2022/11/24 01:41:00;;;;;;;16.88;7.85;;;;;;;;;;5051604;28;20043;-65
2022/11/24 01:43:26;;;;;;;22.60;8.98;;;;;;;;;;5051076;28;20850;-66
2022/11/24 01:45:51;;;;;;;27.92;8.82;;;;;;;;;;5051215;28;20099;-64
2022/11/24 01:48:26;;;;;;;20.45;7.75;;;;;;;;;;5050097;28;20025;-66
2022/11/24 01:51:09;;;;;;;18.55;8.20;;;;;;;;;;5049888;28;20166;-64
2022/11/24 01:53:35;;;;;;;18.25;8.07;;;;;;;;;;5050472;28;20036;-64
2022/11/24 01:56:01;;;;;;;23.38;9.73;;;;;;;;;;5051064;28;20013;-66
2022/11/24 01:58:28;;;;;;;21.20;8.27;;;;;;;;;;5046865;28;20021;-64
2022/11/24 02:00:53;;;;;;;23.77;8.15;;;;;;;;;;5050381;28;20013;-65
2022/11/24 02:03:21;;;;;;;21.98;9.43;;;;;;;;;;5050355;28;20025;-65
2022/11/24 02:05:50;;;;;;;25.85;9.00;;;;;;;;;;5043085;28;20492;-64
2022/11/24 02:08:24;;;;;;;25.13;8.63;;;;;;;;;;5049552;28;20021;-65
2022/11/24 02:10:50;;;;;;;20.92;8.50;;;;;;;;;;5049959;28;20033;-65
2022/11/24 02:13:15;;;;;;;15.52;8.02;;;;;;;;;;5050056;28;20021;-64
2022/11/24 02:15:41;;;;;;;28.33;9.00;;;;;;;;;;5050292;28;20411;-64
2022/11/24 02:18:06;;;;;;;17.45;8.18;;;;;;;;;;5049742;28;20112;-65
2022/11/24 02:20:32;;;;;;;25.48;8.88;;;;;;;;;;5049716;28;20096;-65
2022/11/24 02:23:00;;;;;;;21.20;9.68;;;;;;;;;;5049425;28;20027;-64
2022/11/24 02:25:43;;;;;;;24.30;8.65;;;;;;;;;;5049791;28;20095;-64
2022/11/24 02:28:11;;;;;;;28.95;9.88;;;;;;;;;;5049806;28;20013;-65
2022/11/24 02:30:36;;;;;;;21.27;9.57;;;;;;;;;;5049008;28;20025;-65
2022/11/24 02:33:02;;;;;;;21.55;8.85;;;;;;;;;;5049398;28;20031;-65
2022/11/24 02:35:27;;;;;;;22.20;9.13;;;;;;;;;;5047978;28;20029;-64
2022/11/24 02:37:52;;;;;;;22.02;9.80;;;;;;;;;;5049254;28;20362;-66
2022/11/24 02:40:23;;;;;;;25.23;8.65;;;;;;;;;;5048996;28;20447;-64
2022/11/24 02:42:49;;;;;;;23.00;9.18;;;;;;;;;;5049249;28;20505;-64
2022/11/24 02:45:15;;;;;;;18.98;8.40;;;;;;;;;;5049155;28;20089;-65
2022/11/24 02:47:40;;;;;;;28.20;10.00;;;;;;;;;;5049564;28;20336;-65
2022/11/24 02:50:05;;;;;;;18.08;9.48;;;;;;;;;;5046239;28;20017;-67
2022/11/24 02:52:30;;;;;;;16.90;8.48;;;;;;;;;;5057110;28;20021;-67
2022/11/24 02:54:56;;;;;;;19.67;8.52;;;;;;;;;;5049654;28;20517;-66
2022/11/24 02:57:22;;;;;;;25.77;8.82;;;;;;;;;;5047886;28;20051;-66
2022/11/24 02:59:47;;;;;;;24.02;8.13;;;;;;;;;;5048290;28;20033;-65
2022/11/24 03:02:12;;;;;;;20.83;8.60;;;;;;;;;;5049803;28;20021;-67
2022/11/24 03:04:37;;;;;;;14.02;7.82;;;;;;;;;;5043924;28;20041;-65
2022/11/24 03:07:03;;;;;;;20.55;8.50;;;;;;;;;;5048061;28;20027;-66
2022/11/24 03:09:29;;;;;;;13.93;7.53;;;;;;;;;;5049725;28;20013;-66
2022/11/24 03:11:54;;;;;;;19.40;9.30;;;;;;;;;;5049399;28;20031;-66
2022/11/24 03:14:19;;;;;;;22.15;9.15;;;;;;;;;;5049334;28;20021;-64
2022/11/24 03:16:44;;;;;;;18.63;9.15;;;;;;;;;;5048896;28;20043;-65
2022/11/24 03:19:10;;;;;;;24.50;9.55;;;;;;;;;;5049134;28;20431;-66
2022/11/24 03:21:35;;;;;;;20.88;9.02;;;;;;;;;;5049271;28;20028;-66
2022/11/24 03:24:00;;;;;;;20.27;9.40;;;;;;;;;;5049321;28;20024;-66
2022/11/24 03:26:26;;;;;;;24.38;9.70;;;;;;;;;;5048693;28;20546;-63
2022/11/24 03:28:52;;;;;;;21.25;9.02;;;;;;;;;;5049101;28;20025;-65
2022/11/24 03:31:17;;;;;;;18.83;8.85;;;;;;;;;;5049119;28;20037;-65
2022/11/24 03:33:43;;;;;;;25.95;10.13;;;;;;;;;;5048902;28;20031;-66
2022/11/24 03:36:08;;;;;;;24.85;9.80;;;;;;;;;;5049259;28;20017;-63
2022/11/24 03:38:33;;;;;;;16.95;9.07;;;;;;;;;;5048853;28;20036;-65
2022/11/24 03:40:59;;;;;;;17.08;8.73;;;;;;;;;;5049080;28;20029;-64
2022/11/24 03:43:24;;;;;;;20.80;8.02;;;;;;;;;;5048688;28;20027;-64
2022/11/24 03:45:49;;;;;;;23.33;8.98;;;;;;;;;;5048809;28;20072;-65
2022/11/24 03:48:15;;;;;;;22.95;10.45;;;;;;;;;;5048623;28;20016;-63
2022/11/24 03:50:40;;;;;;;21.88;9.57;;;;;;;;;;5044658;28;20431;-65
2022/11/24 03:53:06;;;;;;;21.08;9.23;;;;;;;;;;5046855;28;20037;-63
2022/11/24 03:55:31;;;;;;;21.50;9.68;;;;;;;;;;5048783;28;20021;-65
2022/11/24 03:57:56;;;;;;;20.52;9.70;;;;;;;;;;5048268;28;20020;-65
2022/11/24 04:00:21;;;;;;;18.92;9.02;;;;;;;;;;5048723;28;20474;-66
2022/11/24 04:02:47;;;;;;;24.58;9.90;;;;;;;;;;5048262;28;20056;-65
2022/11/24 04:05:12;;;;;;;22.05;9.57;;;;;;;;;;5041769;28;20017;-66
2022/11/24 04:07:37;;;;;;;21.77;9.38;;;;;;;;;;5047355;28;20069;-66
2022/11/24 04:10:03;;;;;;;20.65;9.05;;;;;;;;;;5048080;28;20025;-65
2022/11/24 04:12:43;;;;;;;19.55;9.30;;;;;;;;;;5047973;28;20097;-65
2022/11/24 04:15:10;;;;;;;18.48;8.55;;;;;;;;;;5048304;28;20101;-64
2022/11/24 04:17:35;;;;;;;18.20;9.18;;;;;;;;;;5048074;28;20052;-65
2022/11/24 04:20:00;;;;;;;20.02;9.35;;;;;;;;;;5047843;28;20087;-65
2022/11/24 04:22:26;;;;;;;21.30;8.55;;;;;;;;;;5047968;28;20041;-64
2022/11/24 04:24:51;;;;;;;25.13;9.63;;;;;;;;;;5048411;28;20021;-65
2022/11/24 04:27:16;;;;;;;24.38;9.18;;;;;;;;;;5047920;28;20039;-65
2022/11/24 04:29:42;;;;;;;17.80;8.48;;;;;;;;;;5047875;28;20020;-65
2022/11/24 04:32:07;;;;;;;20.05;9.00;;;;;;;;;;5047628;28;20104;-64
2022/11/24 04:34:33;;;;;;;24.23;9.57;;;;;;;;;;5047590;28;20024;-65
2022/11/24 04:36:58;;;;;;;24.60;9.30;;;;;;;;;;5046450;28;20048;-63
2022/11/24 04:39:26;;;;;;;17.63;9.27;;;;;;;;;;5047643;28;20026;-63
2022/11/24 04:41:52;;;;;;;20.27;8.82;;;;;;;;;;5046313;28;20029;-65
2022/11/24 04:44:17;;;;;;;17.73;8.82;;;;;;;;;;5047788;28;20127;-64
2022/11/24 04:46:42;;;;;;;20.33;8.57;;;;;;;;;;5047773;28;20017;-65
2022/11/24 04:49:10;;;;;;;19.20;9.20;;;;;;;;;;5048295;28;20386;-64
2022/11/24 04:51:36;;;;;;;20.15;9.32;;;;;;;;;;5036244;28;20056;-65
2022/11/24 04:54:01;;;;;;;21.10;9.20;;;;;;;;;;5048798;28;20025;-66
2022/11/24 04:56:26;;;;;;;22.23;9.30;;;;;;;;;;5047632;28;20398;-66
2022/11/24 04:58:51;;;;;;;20.17;8.07;;;;;;;;;;5048002;28;20047;-66
2022/11/24 05:01:17;;;;;;;23.23;10.27;;;;;;;;;;5047803;28;20104;-65
2022/11/24 05:03:42;;;;;;;19.95;9.23;;;;;;;;;;5047874;28;20032;-65
2022/11/24 05:06:07;;;;;;;24.05;9.77;;;;;;;;;;5041318;28;20028;-66
2022/11/24 05:08:33;;;;;;;21.20;9.75;;;;;;;;;;5048836;28;20040;-65
2022/11/24 05:11:02;;;;;;;19.48;9.27;;;;;;;;;;5047310;28;20068;-66
2022/11/24 05:13:27;;;;;;;20.48;9.15;;;;;;;;;;5047711;28;20076;-65
2022/11/24 05:15:52;;;;;;;20.02;8.85;;;;;;;;;;5048204;28;20419;-66
2022/11/24 05:18:17;;;;;;;19.35;8.57;;;;;;;;;;5047991;28;20097;-66
2022/11/24 05:20:46;;;;;;;23.98;9.77;;;;;;;;;;5048432;28;20043;-65
2022/11/24 05:23:11;;;;;;;21.38;8.25;;;;;;;;;;5042555;28;20028;-67
2022/11/24 05:25:36;;;;;;;19.80;9.13;;;;;;;;;;5052899;28;20029;-64
2022/11/24 05:28:03;;;;;;;16.17;8.50;;;;;;;;;;5051486;28;20016;-64
2022/11/24 05:30:29;;;;;;;19.20;8.93;;;;;;;;;;5050182;28;20023;-65
2022/11/24 05:32:55;;;;;;;20.90;9.48;;;;;;;;;;5051756;28;20475;-66
2022/11/24 05:35:20;;;;;;;20.88;9.55;;;;;;;;;;5051831;28;20032;-66
2022/11/24 05:37:46;;;;;;;21.85;9.35;;;;;;;;;;5050543;28;20021;-66
2022/11/24 05:40:11;;;;;;;23.58;9.45;;;;;;;;;;5043212;28;21271;-66
2022/11/24 05:42:40;;;;;;;19.13;8.60;;;;;;;;;;5044393;28;20078;-65
2022/11/24 05:45:06;;;;;;;20.10;9.07;;;;;;;;;;5044816;28;20160;-66
2022/11/24 05:47:31;;;;;;;23.23;9.73;;;;;;;;;;5044643;28;20052;-66
2022/11/24 05:49:56;;;;;;;26.83;10.65;;;;;;;;;;5042768;28;20021;-65
2022/11/24 05:52:22;;;;;;;25.98;10.57;;;;;;;;;;5044051;28;20057;-64
2022/11/24 05:54:47;;;;;;;21.85;9.90;;;;;;;;;;5042656;28;20414;-65
2022/11/24 05:57:12;;;;;;;21.27;9.90;;;;;;;;;;5044016;28;20029;-64
2022/11/24 05:59:37;;;;;;;24.05;10.43;;;;;;;;;;5043325;28;20139;-66
2022/11/24 06:02:03;;;;;;;19.85;9.57;;;;;;;;;;5040197;28;20037;-67
2022/11/24 06:04:28;;;;;;;22.27;9.38;;;;;;;;;;5043896;28;20025;-64
2022/11/24 06:06:53;;;;;;;20.60;10.80;;;;;;;;;;5043642;28;20059;-66
2022/11/24 06:09:18;;;;;;;20.42;9.40;;;;;;;;;;5043587;28;20028;-66
2022/11/24 06:11:45;;;;;;;18.98;9.70;;;;;;;;;;5042042;28;20029;-64
2022/11/24 06:14:10;;;;;;;23.85;10.73;;;;;;;;;;5043285;28;20021;-66
2022/11/24 06:16:36;;;;;;;20.67;9.40;;;;;;;;;;5043244;28;20032;-65
2022/11/24 06:19:01;;;;;;;20.58;8.98;;;;;;;;;;5043769;28;20021;-66
2022/11/24 06:21:26;;;;;;;19.13;9.77;;;;;;;;;;5042355;28;20025;-67
2022/11/24 06:23:52;;;;;;;27.15;9.40;;;;;;;;;;5043689;28;20327;-64
2022/11/24 06:26:17;;;;;;;26.38;9.32;;;;;;;;;;5042781;28;20536;-66
2022/11/24 06:28:42;;;;;;;27.58;9.77;;;;;;;;;;5042996;28;20538;-64
2022/11/24 06:31:08;;;;;;;22.85;9.95;;;;;;;;;;5041349;28;20120;-65
2022/11/24 06:33:34;;;;;;;27.20;11.52;;;;;;;;;;5039111;28;20792;-65
2022/11/24 06:36:04;;;;;;;25.65;10.52;;;;;;;;;;5041383;28;20033;-65
2022/11/24 06:38:30;;;;;;;26.83;10.43;;;;;;;;;;5039019;28;20025;-67
2022/11/24 06:41:03;;;;;;;15.82;8.18;;;;;;;;;;5039179;28;20028;-67
2022/11/24 06:43:29;;;;;;;26.85;10.13;;;;;;;;;;5040392;28;20033;-67
2022/11/24 06:45:54;;;;;;;21.98;9.68;;;;;;;;;;5037653;28;20029;-67
2022/11/24 06:48:20;;;;;;;21.33;8.60;;;;;;;;;;5048023;28;20014;-66
2022/11/24 06:50:45;;;;;;;20.85;9.07;;;;;;;;;;5041060;28;20460;-64
2022/11/24 06:53:11;;;;;;;23.42;10.55;;;;;;;;;;5044621;28;20029;-68
2022/11/24 06:55:37;;;;;;;18.85;9.80;;;;;;;;;;5047035;28;20079;-66
2022/11/24 06:58:03;;;;;;;22.17;10.52;;;;;;;;;;5047579;28;20045;-65
2022/11/24 07:00:30;;;;;;;26.45;10.85;;;;;;;;;;5049112;28;20013;-67
2022/11/24 07:02:56;;;;;;;23.85;10.60;;;;;;;;;;5049145;28;20490;-66
2022/11/24 07:05:21;;;;;;;27.48;11.27;;;;;;;;;;5048719;28;20569;-67
2022/11/24 07:07:46;;;;;;;28.73;11.88;;;;;;;;;;5049042;28;20142;-67
2022/11/24 07:10:12;;;;;;;25.40;10.38;;;;;;;;;;5048687;28;20382;-65
2022/11/24 07:12:37;;;;;;;24.42;9.35;;;;;;;;;;5047202;28;20355;-66
2022/11/24 07:15:02;;;;;;;24.63;8.77;;;;;;;;;;5046943;28;20489;-64
2022/11/24 07:17:27;;;;;;;27.58;11.15;;;;;;;;;;5048962;28;20470;-66
2022/11/24 07:19:53;;;;;;;21.63;9.88;;;;;;;;;;5047912;28;20012;-65
2022/11/24 07:22:18;;;;;;;21.52;8.50;;;;;;;;;;5048367;28;20032;-65
2022/11/24 07:24:43;;;;;;;20.38;9.23;;;;;;;;;;5047672;28;20029;-66
2022/11/24 07:27:08;;;;;;;21.00;8.35;;;;;;;;;;5049153;28;20016;-67
2022/11/24 07:29:33;;;;;;;18.23;7.75;;;;;;;;;;5047845;28;20017;-66
2022/11/24 07:31:59;;;;;;;20.55;8.57;;;;;;;;;;5048500;28;20021;-67
2022/11/24 07:34:24;;;;;;;17.33;8.70;;;;;;;;;;5046863;28;20165;-67
2022/11/24 07:36:49;;;;;;;17.48;7.65;;;;;;;;;;5048161;28;20017;-65
2022/11/24 07:39:15;;;;;;;29.73;8.98;;;;;;;;;;5048063;28;20052;-65
2022/11/24 07:41:40;;;;;;;19.73;7.43;;;;;;;;;;5048290;28;20040;-64
2022/11/24 07:44:05;;;;;;;14.60;7.30;;;;;;;;;;5047000;28;20036;-66
2022/11/24 07:46:30;;;;;;;20.55;7.60;;;;;;;;;;5048299;28;20280;-65
2022/11/24 07:48:56;;;;;;;27.33;7.70;;;;;;;;;;5048684;28;20447;-66
2022/11/24 07:51:21;;;;;;;17.90;7.30;;;;;;;;;;5048286;28;20017;-66
2022/11/24 07:53:46;;;;;;;22.00;7.82;;;;;;;;;;5047814;28;20650;-67
2022/11/24 07:56:12;;;;;;;18.73;7.53;;;;;;;;;;5046413;28;20017;-65
2022/11/24 07:58:37;;;;;;;18.70;8.25;;;;;;;;;;5047004;28;20078;-67
2022/11/24 08:01:10;;;;;;;20.27;8.95;;;;;;;;;;5047840;28;20021;-67
2022/11/24 08:03:35;;;;;;;30.48;8.90;;;;;;;;;;5048428;28;20104;-65
2022/11/24 08:06:00;;;;;;;29.02;7.22;;;;;;;;;;5047166;28;20116;-66
2022/11/24 08:08:26;;;;;;;17.50;7.35;;;;;;;;;;5048064;28;20133;-66
2022/11/24 08:10:51;;;;;;;37.03;9.35;;;;;;;;;;5048185;28;20023;-65
2022/11/24 08:13:17;;;;;;;22.48;8.73;;;;;;;;;;5048182;28;20020;-65
2022/11/24 08:15:42;;;;;;;21.95;8.68;;;;;;;;;;5048300;28;20029;-64
2022/11/24 08:18:07;;;;;;;15.75;7.45;;;;;;;;;;5047695;28;20090;-66
2022/11/24 08:20:33;;;;;;;13.10;6.15;;;;;;;;;;5047823;28;20074;-65
2022/11/24 08:22:58;;;;;;;18.98;6.57;;;;;;;;;;5048050;28;20505;-67
2022/11/24 08:25:31;;;;;;;27.42;7.28;;;;;;;;;;5048436;28;20470;-66
2022/11/24 08:27:57;;;;;;;17.48;6.72;;;;;;;;;;5047717;28;20021;-65
2022/11/24 08:30:22;;;;;;;19.27;7.80;;;;;;;;;;5047597;28;20162;-66
2022/11/24 08:32:47;;;;;;;18.30;7.13;;;;;;;;;;5047657;28;20028;-66
2022/11/24 08:35:13;;;;;;;20.05;8.35;;;;;;;;;;5048576;28;20036;-65
2022/11/24 08:37:38;;;;;;;17.33;8.10;;;;;;;;;;5047876;28;20032;-66
2022/11/24 08:40:03;;;;;;;18.48;7.20;;;;;;;;;;5047989;28;20017;-66
2022/11/24 08:42:28;;;;;;;17.52;7.15;;;;;;;;;;5048111;28;20031;-64
2022/11/24 08:44:54;;;;;;;26.05;8.30;;;;;;;;;;5047198;28;20033;-65
2022/11/24 08:47:20;;;;;;;19.92;7.53;;;;;;;;;;5047531;28;20041;-63
2022/11/24 08:49:45;;;;;;;18.48;7.53;;;;;;;;;;5046702;28;20021;-65
2022/11/24 08:52:10;;;;;;;16.80;7.00;;;;;;;;;;5040622;28;20481;-66
2022/11/24 08:54:36;;;;;;;18.30;6.25;;;;;;;;;;5044325;28;20033;-67
2022/11/24 08:57:01;;;;;;;13.85;5.10;;;;;;;;;;5046167;28;20604;-65
2022/11/24 08:59:26;;;;;;;15.07;5.85;;;;;;;;;;5051000;28;20063;-67
2022/11/24 09:01:51;;;;;;;19.70;5.55;;;;;;;;;;5051555;28;20059;-65
2022/11/24 09:04:16;;;;;;;19.92;6.10;;;;;;;;;;5051215;28;20199;-68
2022/11/24 09:06:42;;;;;;;17.88;5.63;;;;;;;;;;5050076;28;20021;-66
2022/11/24 09:09:08;;;;;;;17.80;6.10;;;;;;;;;;5049976;28;20059;-66
2022/11/24 09:11:33;;;;;;;14.07;5.72;;;;;;;;;;5051408;28;20021;-66
2022/11/24 09:13:59;;;;;;;23.77;5.28;;;;;;;;;;5051193;28;20063;-64
2022/11/24 09:16:25;;;;;;;16.10;4.90;;;;;;;;;;5051341;28;20231;-66
2022/11/24 09:18:54;;;;;;;17.95;4.68;;;;;;;;;;5050834;28;20055;-67
2022/11/24 09:21:19;;;;;;;;;;;;;;;;;;5051906;28;20013;-66
2022/11/24 09:23:47;;;;;;;18.23;4.18;;;;;;;;;;5051500;28;19985;-66
2022/11/24 09:26:14;;;;;;;10.95;4.82;;;;;;;;;;5050982;28;20116;-66
2022/11/24 09:28:40;;;;;;;13.73;4.05;;;;;;;;;;5051108;28;20122;-65
2022/11/24 09:31:06;;;;;;;8.73;4.00;;;;;;;;;;5051114;28;20493;-66
2022/11/24 09:33:32;;;;;;;19.70;4.82;;;;;;;;;;5050248;28;20474;-65
2022/11/24 09:35:57;;;;;;;14.93;4.43;;;;;;;;;;5039996;28;20045;-65
2022/11/24 09:38:22;;;;;;;15.52;4.22;;;;;;;;;;5050865;28;20044;-66
2022/11/24 09:40:48;;;;;;;11.63;3.80;;;;;;;;;;5050673;28;20021;-65
2022/11/24 09:43:16;;;;;;;10.43;4.05;;;;;;;;;;5050540;28;20097;-66
2022/11/24 09:45:48;;;;;;;13.90;4.30;;;;;;;;;;5049460;28;20017;-65
2022/11/24 09:48:21;;;;;;;12.95;3.88;;;;;;;;;;5048197;28;20066;-65
2022/11/24 09:50:47;;;;;;;16.70;4.25;;;;;;;;;;5037947;28;20017;-67
2022/11/24 09:53:16;;;;;;;15.65;4.40;;;;;;;;;;5046560;28;20054;-66
2022/11/24 09:56:01;;;;;;;15.45;4.13;;;;;;;;;;5046736;28;20025;-65
2022/11/24 09:58:30;;;;;;;15.65;4.25;;;;;;;;;;5050121;28;20025;-65
2022/11/24 10:00:55;;;;;;;16.65;3.95;;;;;;;;;;5050363;28;20142;-65
2022/11/24 10:03:42;;;;;;;11.15;4.10;;;;;;;;;;5049730;28;20419;-65
2022/11/24 10:06:19;;;;;;;12.15;4.00;;;;;;;;;;5050176;28;20094;-66
2022/11/24 10:08:58;;;;;;;16.40;4.55;;;;;;;;;;5050064;28;20166;-66
2022/11/24 10:11:30;;;;;;;9.93;3.70;;;;;;;;;;5050590;28;20505;-67
2022/11/24 10:13:55;;;;;;;13.70;4.53;;;;;;;;;;5050514;28;20041;-66
2022/11/24 10:16:39;;;;;;;12.25;4.10;;;;;;;;;;5049970;28;20098;-65
2022/11/24 10:19:11;;;;;;;14.95;4.30;;;;;;;;;;5053428;28;20036;-66
2022/11/24 10:21:55;;;;;;;14.52;4.25;;;;;;;;;;5050079;28;20398;-66
2022/11/24 10:24:39;;;;;;;18.95;5.55;;;;;;;;;;5050156;28;20040;-67
2022/11/24 10:27:13;;;;;;;17.25;4.43;;;;;;;;;;5050084;28;20423;-66
2022/11/24 10:29:39;;;;;;;11.98;4.32;;;;;;;;;;5049846;28;20025;-66
2022/11/24 10:32:09;;;;;;;17.27;4.43;;;;;;;;;;5049789;28;20508;-66
2022/11/24 10:34:40;;;;;;;20.10;4.47;;;;;;;;;;5049802;28;20013;-67
2022/11/24 10:37:24;;;;;;;19.08;4.35;;;;;;;;;;5049602;28;20100;-64
2022/11/24 10:40:04;;;;;;;14.65;4.07;;;;;;;;;;5049486;28;20036;-65
2022/11/24 10:42:30;;;;;;;20.10;4.03;;;;;;;;;;5050252;28;20029;-68
2022/11/24 10:45:02;;;;;;;14.23;3.85;;;;;;;;;;5049856;28;20100;-64
2022/11/24 10:47:27;;;;;;;17.42;3.83;;;;;;;;;;5049970;28;20079;-66
2022/11/24 10:50:01;;;;;;;13.70;4.40;;;;;;;;;;5047229;28;20376;-66
2022/11/24 10:52:27;;;;;;;15.15;4.45;;;;;;;;;;5039576;28;20441;-65
2022/11/24 10:54:54;;;;;;;24.58;4.38;;;;;;;;;;5047668;28;20104;-65
2022/11/24 10:57:27;;;;;;;11.70;3.80;;;;;;;;;;5049431;28;20017;-66
2022/11/24 10:59:52;;;;;;;11.63;3.45;;;;;;;;;;5049209;28;20406;-66
2022/11/24 11:02:37;;;;;;;14.25;4.10;;;;;;;;;;5049635;28;20032;-65
2022/11/24 11:05:21;;;;;;;10.55;3.28;;;;;;;;;;5036252;28;20083;-65
2022/11/24 11:07:46;;;;;;;21.05;4.15;;;;;;;;;;5049156;28;20024;-65
2022/11/24 11:10:22;;;;;;;8.93;3.50;;;;;;;;;;5049799;28;20016;-65
2022/11/24 11:12:47;;;;;;;11.82;3.15;;;;;;;;;;5049687;28;20017;-67
2022/11/24 11:15:23;;;;;;;21.13;5.18;;;;;;;;;;5050072;28;20379;-63
2022/11/24 11:17:49;;;;;;;19.35;5.53;;;;;;;;;;5048926;28;20025;-67
2022/11/24 11:20:18;;;;;;;16.58;4.18;;;;;;;;;;5047672;28;20041;-66
2022/11/24 11:22:45;;;;;;;13.63;4.60;;;;;;;;;;5048542;28;20428;-66
2022/11/24 11:25:17;;;;;;;20.23;4.10;;;;;;;;;;5049306;28;20067;-69
2022/11/24 11:27:42;;;;;;;20.92;4.35;;;;;;;;;;5048975;28;20104;-68
2022/11/24 11:30:16;;;;;;;13.43;4.00;;;;;;;;;;5049537;28;20092;-68
2022/11/24 11:32:52;;;;;;;15.20;5.40;;;;;;;;;;5036621;28;20017;-67
2022/11/24 11:35:17;;;;;;;17.60;3.92;;;;;;;;;;5048513;28;20021;-67
2022/11/24 11:37:43;;;;;;;12.18;3.50;;;;;;;;;;5049007;28;20039;-67
2022/11/24 11:40:14;;;;;;;15.32;2.30;;;;;;;;;;5048970;28;20013;-66
2022/11/24 11:43:02;;;;;;;13.25;2.60;;;;;;;;;;5048850;28;20025;-66
2022/11/24 11:45:32;;;;;;;23.30;3.30;;;;;;;;;;5040436;28;20040;-65
2022/11/24 11:47:58;;;;;;;15.45;3.15;;;;;;;;;;5048616;28;20083;-68
2022/11/24 11:50:24;;;;;;;12.60;3.60;;;;;;;;;;5048462;28;20522;-66
2022/11/24 11:52:50;;;;;;;12.70;2.67;;;;;;;;;;5047922;28;20036;-65
2022/11/24 11:55:35;;;;;;;14.80;2.75;;;;;;;;;;5049840;28;20041;-67
2022/11/24 11:58:18;;;;;;;11.45;2.55;;;;;;;;;;5047387;28;20113;-69
2022/11/24 12:01:02;;;;;;;15.25;3.10;;;;;;;;;;5048653;28;20009;-68
2022/11/24 12:03:38;;;;;;;11.10;2.15;;;;;;;;;;5035831;28;20101;-65
2022/11/24 12:06:15;;;;;;;15.55;2.80;;;;;;;;;;5048579;28;20104;-65
2022/11/24 12:08:43;;;;;;;10.15;2.42;;;;;;;;;;5047422;28;20473;-67
2022/11/24 12:11:16;;;;;;;11.77;2.28;;;;;;;;;;5047194;28;20144;-67
2022/11/24 12:14:00;;;;;;;14.90;2.60;;;;;;;;;;5048806;28;20032;-68
2022/11/24 12:16:31;;;;;;;18.83;4.10;;;;;;;;;;5047002;28;20082;-65
2022/11/24 12:19:02;;;;;;;14.80;3.00;;;;;;;;;;5044771;28;20021;-66
2022/11/24 12:21:36;;;;;;;19.35;2.95;;;;;;;;;;5035681;28;20024;-67
2022/11/24 12:24:02;;;;;;;14.98;3.25;;;;;;;;;;5048337;28;20389;-66
2022/11/24 12:26:39;;;;;;;17.05;2.80;;;;;;;;;;5048550;28;20092;-65
2022/11/24 12:29:10;;;;;;;14.40;3.58;;;;;;;;;;5048377;28;20099;-67
2022/11/24 12:32:14;;;;;;;15.48;3.17;;;;;;;;;;5047525;28;20016;-68
2022/11/24 12:34:45;;;;;;;15.75;3.20;;;;;;;;;;4956574;28;20094;-67
2022/11/24 12:37:17;;;;;;;25.23;3.08;;;;;;;;;;4965006;28;20030;-68
2022/11/24 12:39:42;;;;;;;20.90;2.88;;;;;;;;;;5009938;28;20033;-67
2022/11/24 12:42:07;;;;;;;15.93;2.70;;;;;;;;;;5049020;28;20051;-68
2022/11/24 12:44:51;;;;;;;15.27;2.67;;;;;;;;;;5048305;28;20017;-66
2022/11/24 12:47:42;;;;;;;18.38;2.92;;;;;;;;;;5045707;28;20021;-68
2022/11/24 12:50:09;;;;;;;15.77;2.47;;;;;;;;;;5048243;28;20021;-68
2022/11/24 12:52:37;;;;;;;28.73;4.10;;;;;;;;;;5045990;28;20075;-66
2022/11/24 12:55:03;;;;;;;16.38;2.55;;;;;;;;;;5047604;28;20029;-66
2022/11/24 12:57:28;;;;;;;16.40;2.72;;;;;;;;;;5029233;28;20460;-67
2022/11/24 12:59:58;;;;;;;13.32;3.63;;;;;;;;;;5047915;28;20402;-66
2022/11/24 13:02:23;;;;;;;13.50;2.42;;;;;;;;;;5046489;28;20389;-67
2022/11/24 13:05:03;;;;;;;23.50;3.40;;;;;;;;;;5047830;28;20519;-69
2022/11/24 13:07:45;;;;;;;17.95;2.55;;;;;;;;;;5046095;28;20113;-66
2022/11/24 13:10:23;;;;;;;17.50;2.97;;;;;;;;;;5043805;28;20021;-66
2022/11/24 13:12:52;;;;;;;15.80;2.95;;;;;;;;;;5043701;28;20477;-66
2022/11/24 13:15:17;;;;;;;13.82;2.83;;;;;;;;;;5046598;28;20029;-66
2022/11/24 13:17:43;;;;;;;22.88;4.07;;;;;;;;;;5047905;28;20035;-67
2022/11/24 13:20:14;;;;;;;17.58;3.20;;;;;;;;;;5046108;28;20092;-65
2022/11/24 13:22:45;;;;;;;12.35;3.20;;;;;;;;;;5047604;28;20105;-67
2022/11/24 13:25:16;;;;;;;18.13;2.95;;;;;;;;;;5047709;28;20048;-67
2022/11/24 13:27:42;;;;;;;19.30;3.58;;;;;;;;;;5046582;28;20481;-67
2022/11/24 13:30:34;;;;;;;28.23;3.92;;;;;;;;;;5047605;28;20085;-67
2022/11/24 13:33:11;;;;;;;19.27;3.05;;;;;;;;;;5030449;28;20025;-67
2022/11/24 13:35:40;;;;;;;23.85;3.97;;;;;;;;;;5046983;28;20063;-65
2022/11/24 13:38:25;;;;;;;21.40;3.45;;;;;;;;;;5046036;28;20067;-66
2022/11/24 13:40:50;;;;;;;23.67;4.25;;;;;;;;;;5036904;28;20021;-65
2022/11/24 13:43:15;;;;;;;32.40;4.63;;;;;;;;;;5047480;28;20344;-66
2022/11/24 13:45:44;;;;;;;20.40;3.50;;;;;;;;;;5050956;28;20470;-64
2022/11/24 13:48:18;;;;;;;26.17;4.03;;;;;;;;;;5049010;28;20129;-65
2022/11/24 13:51:06;;;;;;;26.80;4.25;;;;;;;;;;5045680;28;20266;-67
2022/11/24 13:53:33;;;;;;;18.73;4.15;;;;;;;;;;5032157;28;20056;-66
2022/11/24 13:56:01;;;;;;;25.73;4.70;;;;;;;;;;5050766;28;20025;-66
2022/11/24 13:58:33;;;;;;;15.05;3.08;;;;;;;;;;5050814;28;20025;-67
2022/11/24 14:01:01;;;;;;;27.67;4.05;;;;;;;;;;5047995;28;20091;-67
2022/11/24 14:03:32;;;;;;;27.02;4.32;;;;;;;;;;5050484;28;20114;-65
2022/11/24 14:05:59;;;;;;;31.30;3.97;;;;;;;;;;5049374;28;20111;-65
2022/11/24 14:08:29;;;;;;;23.77;4.05;;;;;;;;;;5049792;28;20190;-65
2022/11/24 14:10:55;;;;;;;25.35;4.40;;;;;;;;;;5046296;28;20052;-65
2022/11/24 14:13:21;;;;;;;22.83;3.80;;;;;;;;;;5049561;28;20036;-66
2022/11/24 14:15:59;;;;;;;28.50;4.82;;;;;;;;;;5049960;28;20042;-65
2022/11/24 14:18:25;;;;;;;20.95;3.60;;;;;;;;;;5050553;28;20017;-64
2022/11/24 14:20:50;;;;;;;26.92;4.63;;;;;;;;;;5050561;28;20032;-65
2022/11/24 14:23:15;;;;;;;21.60;3.30;;;;;;;;;;5050809;28;20020;-64
2022/11/24 14:25:45;;;;;;;25.17;4.38;;;;;;;;;;5048815;28;20107;-65
2022/11/24 14:28:22;;;;;;;21.98;4.75;;;;;;;;;;5050558;28;20100;-65
2022/11/24 14:30:47;;;;;;;20.45;3.63;;;;;;;;;;5050776;28;20027;-64
2022/11/24 14:33:14;;;;;;;19.35;3.85;;;;;;;;;;5048558;28;20103;-66
2022/11/24 14:35:44;;;;;;;21.65;4.18;;;;;;;;;;5048726;28;20386;-65
2022/11/24 14:38:10;;;;;;;26.27;4.60;;;;;;;;;;5048823;28;20467;-66